Terminal Aerodrome Forecast
Issued by NWS Corpus Christi, TX

Home | Current Version | Previous Version | Text Only | Print | Product List | Glossary On
Versions: 1 2 3 4 5 6 7 8 9 10 11 12 13
000
FTUS44 KCRP 200500
TAFCRP
TAF
KCRP 200529Z 2006/2106 16007KT P6SM FEW015
     FM201500 17015KT P6SM SCT030
     FM201900 14020G27KT P6SM FEW030
     FM210300 14013KT P6SM FEW018=

USA.gov is the U.S. government's official web portal to all federal, state and local government web resources and services.